Canton, South Dakota
Current Conditions -  °F | °C
As of 9:56 PM on Tuesday 21 Oct 2014 (Local Time) from KFSD Reporting Station
Clear Clear  
Wind Chill: 58°   Ceiling: Unl
Heat Index: 58°   Visibility: 10mi
Dew Point: 42°   Wind: 14mph
Humidity: 56%   Direction: 140°SE
Pressure: 30.02"   Gusts: NA
Location:  43.3°N, 96.59°W
Report Text: KFSD 220256Z 14012KT 10SM CLR 14/06 A3002 RMK AO2 SLP166 T01440056 53014
Loading
Personal Weather Stations






























Interactive Weather Map
Tropical Storm Tracking
New forecast layout! Learn more

10-Day Weather Forecast

Advertisements
Track Severe Weather on mobile